Terminal Aerodrome Forecast
Issued by NWS

Home | Current Version | Previous Version | Text Only | Print | Product List | Glossary On
Versions: 1 2 3 4 5 6 7 8 9 10 11 12 13 14 15
000
FTUS43 KBIS 201720
TAFMOT
TAF
KMOT 201720Z 2018/2118 17011KT P6SM SKC
     FM210200 15010KT P6SM FEW250 WS020/18040KT
     FM210600 24015KT P6SM FEW250 WS020/24035KT
     FM210800 28019G29KT P6SM FEW250 WS020/28045KT=

USA.gov is the U.S. government's official web portal to all federal, state and local government web resources and services.